sensor_id;sensor_type;location;lat;lon;timestamp;temperature;humidity
56771;DHT22;42641;59.794;17.616;2023-06-19T00:00:28;17.40;99.90
56771;DHT22;42641;59.794;17.616;2023-06-19T00:02:56;17.40;99.90
56771;DHT22;42641;59.794;17.616;2023-06-19T00:05:22;17.40;99.90
56771;DHT22;42641;59.794;17.616;2023-06-19T00:07:49;17.50;99.90
56771;DHT22;42641;59.794;17.616;2023-06-19T00:10:16;17.40;99.90
56771;DHT22;42641;59.794;17.616;2023-06-19T00:12:42;17.40;99.90
56771;DHT22;42641;59.794;17.616;2023-06-19T00:15:09;17.40;99.90
56771;DHT22;42641;59.794;17.616;2023-06-19T00:17:36;17.40;99.90
56771;DHT22;42641;59.794;17.616;2023-06-19T00:20:04;17.40;99.90
56771;DHT22;42641;59.794;17.616;2023-06-19T00:22:32;17.40;99.90
56771;DHT22;42641;59.794;17.616;2023-06-19T00:24:59;17.40;99.90
56771;DHT22;42641;59.794;17.616;2023-06-19T00:27:25;17.40;99.90
56771;DHT22;42641;59.794;17.616;2023-06-19T00:29:52;17.40;99.90
56771;DHT22;42641;59.794;17.616;2023-06-19T00:32:19;17.40;99.90
56771;DHT22;42641;59.794;17.616;2023-06-19T00:34:46;17.30;99.90
56771;DHT22;42641;59.794;17.616;2023-06-19T00:37:12;17.20;99.90
56771;DHT22;42641;59.794;17.616;2023-06-19T00:39:39;17.10;99.90
56771;DHT22;42641;59.794;17.616;2023-06-19T00:42:09;17.00;99.90
56771;DHT22;42641;59.794;17.616;2023-06-19T00:44:35;17.00;99.90
56771;DHT22;42641;59.794;17.616;2023-06-19T00:47:03;16.90;99.90
56771;DHT22;42641;59.794;17.616;2023-06-19T00:49:30;16.90;99.90
56771;DHT22;42641;59.794;17.616;2023-06-19T00:51:57;16.90;99.90
56771;DHT22;42641;59.794;17.616;2023-06-19T00:54:24;16.80;99.90
56771;DHT22;42641;59.794;17.616;2023-06-19T00:56:51;16.80;99.90
56771;DHT22;42641;59.794;17.616;2023-06-19T00:59:19;16.70;99.90
56771;DHT22;42641;59.794;17.616;2023-06-19T01:01:46;16.80;99.90
56771;DHT22;42641;59.794;17.616;2023-06-19T01:04:13;16.70;99.90
56771;DHT22;42641;59.794;17.616;2023-06-19T01:06:59;16.60;99.90
56771;DHT22;42641;59.794;17.616;2023-06-19T01:09:33;16.60;99.90
56771;DHT22;42641;59.794;17.616;2023-06-19T01:12:10;16.60;99.90
56771;DHT22;42641;59.794;17.616;2023-06-19T01:14:48;16.60;99.90
56771;DHT22;42641;59.794;17.616;2023-06-19T01:17:16;16.60;99.90
56771;DHT22;42641;59.794;17.616;2023-06-19T01:19:43;16.60;99.90
56771;DHT22;42641;59.794;17.616;2023-06-19T01:22:10;16.60;99.90
56771;DHT22;42641;59.794;17.616;2023-06-19T01:24:36;16.60;99.90
56771;DHT22;42641;59.794;17.616;2023-06-19T01:27:03;16.60;99.90
56771;DHT22;42641;59.794;17.616;2023-06-19T01:29:29;16.60;99.90
56771;DHT22;42641;59.794;17.616;2023-06-19T01:31:59;16.60;99.90
56771;DHT22;42641;59.794;17.616;2023-06-19T01:34:29;16.60;99.90
56771;DHT22;42641;59.794;17.616;2023-06-19T01:36:57;16.60;99.90
56771;DHT22;42641;59.794;17.616;2023-06-19T01:39:24;16.60;99.90
56771;DHT22;42641;59.794;17.616;2023-06-19T01:41:52;16.60;99.90
56771;DHT22;42641;59.794;17.616;2023-06-19T01:44:20;16.60;99.90
56771;DHT22;42641;59.794;17.616;2023-06-19T01:46:48;16.60;99.90
56771;DHT22;42641;59.794;17.616;2023-06-19T01:49:15;16.60;99.90
56771;DHT22;42641;59.794;17.616;2023-06-19T01:51:42;16.60;99.90
56771;DHT22;42641;59.794;17.616;2023-06-19T01:54:08;16.70;99.90
56771;DHT22;42641;59.794;17.616;2023-06-19T01:56:35;16.70;99.90
56771;DHT22;42641;59.794;17.616;2023-06-19T01:59:01;16.70;99.90
56771;DHT22;42641;59.794;17.616;2023-06-19T02:01:28;16.70;99.90
56771;DHT22;42641;59.794;17.616;2023-06-19T02:03:55;16.70;99.90
56771;DHT22;42641;59.794;17.616;2023-06-19T02:06:21;16.70;99.90
56771;DHT22;42641;59.794;17.616;2023-06-19T02:08:48;16.70;99.90
56771;DHT22;42641;59.794;17.616;2023-06-19T02:11:14;16.70;99.90
56771;DHT22;42641;59.794;17.616;2023-06-19T02:13:41;16.70;99.90
56771;DHT22;42641;59.794;17.616;2023-06-19T02:16:08;16.70;99.90
56771;DHT22;42641;59.794;17.616;2023-06-19T02:18:34;16.70;99.90
56771;DHT22;42641;59.794;17.616;2023-06-19T02:21:01;16.80;99.90
56771;DHT22;42641;59.794;17.616;2023-06-19T02:23:27;16.80;99.90
56771;DHT22;42641;59.794;17.616;2023-06-19T02:25:54;16.80;99.90
56771;DHT22;42641;59.794;17.616;2023-06-19T02:28:20;16.90;99.90
56771;DHT22;42641;59.794;17.616;2023-06-19T02:30:47;16.90;99.90
56771;DHT22;42641;59.794;17.616;2023-06-19T02:33:13;16.90;99.90
56771;DHT22;42641;59.794;17.616;2023-06-19T02:35:40;16.90;99.90
56771;DHT22;42641;59.794;17.616;2023-06-19T02:38:07;16.90;99.90
56771;DHT22;42641;59.794;17.616;2023-06-19T02:40:34;16.90;99.90
56771;DHT22;42641;59.794;17.616;2023-06-19T02:43:00;16.90;99.90
56771;DHT22;42641;59.794;17.616;2023-06-19T02:45:26;16.90;99.90
56771;DHT22;42641;59.794;17.616;2023-06-19T02:47:53;17.00;99.90
56771;DHT22;42641;59.794;17.616;2023-06-19T02:50:20;16.90;99.90
56771;DHT22;42641;59.794;17.616;2023-06-19T02:52:46;16.90;99.90
56771;DHT22;42641;59.794;17.616;2023-06-19T02:55:13;17.00;99.90
56771;DHT22;42641;59.794;17.616;2023-06-19T02:57:39;17.00;99.90
56771;DHT22;42641;59.794;17.616;2023-06-19T03:00:06;17.10;99.90
56771;DHT22;42641;59.794;17.616;2023-06-19T03:02:33;17.00;99.90
56771;DHT22;42641;59.794;17.616;2023-06-19T03:05:01;17.00;99.90
56771;DHT22;42641;59.794;17.616;2023-06-19T03:07:27;17.10;99.90
56771;DHT22;42641;59.794;17.616;2023-06-19T03:09:55;17.10;99.90
56771;DHT22;42641;59.794;17.616;2023-06-19T03:12:22;17.10;99.90
56771;DHT22;42641;59.794;17.616;2023-06-19T03:14:48;17.10;99.90
56771;DHT22;42641;59.794;17.616;2023-06-19T03:17:15;17.00;99.90
56771;DHT22;42641;59.794;17.616;2023-06-19T03:19:41;17.10;99.90
56771;DHT22;42641;59.794;17.616;2023-06-19T03:22:08;17.10;99.90
56771;DHT22;42641;59.794;17.616;2023-06-19T03:24:34;17.10;99.90
56771;DHT22;42641;59.794;17.616;2023-06-19T03:27:15;17.00;99.90
56771;DHT22;42641;59.794;17.616;2023-06-19T03:29:41;17.10;99.90
56771;DHT22;42641;59.794;17.616;2023-06-19T03:32:10;17.20;99.90
56771;DHT22;42641;59.794;17.616;2023-06-19T03:34:37;17.20;99.90
56771;DHT22;42641;59.794;17.616;2023-06-19T03:37:07;17.20;99.90
56771;DHT22;42641;59.794;17.616;2023-06-19T03:39:34;17.30;99.90
56771;DHT22;42641;59.794;17.616;2023-06-19T03:42:08;17.30;99.90
56771;DHT22;42641;59.794;17.616;2023-06-19T03:44:35;17.30;99.90
56771;DHT22;42641;59.794;17.616;2023-06-19T03:47:01;17.30;99.90
56771;DHT22;42641;59.794;17.616;2023-06-19T03:49:28;17.30;99.90
56771;DHT22;42641;59.794;17.616;2023-06-19T03:51:55;17.40;99.90
56771;DHT22;42641;59.794;17.616;2023-06-19T03:54:21;17.40;99.90
56771;DHT22;42641;59.794;17.616;2023-06-19T03:56:48;17.50;99.90
56771;DHT22;42641;59.794;17.616;2023-06-19T03:59:15;17.50;99.90
56771;DHT22;42641;59.794;17.616;2023-06-19T04:01:41;17.50;99.90
56771;DHT22;42641;59.794;17.616;2023-06-19T04:04:09;17.50;99.90
56771;DHT22;42641;59.794;17.616;2023-06-19T04:06:36;17.60;99.90
56771;DHT22;42641;59.794;17.616;2023-06-19T04:09:03;17.60;99.90
56771;DHT22;42641;59.794;17.616;2023-06-19T04:11:30;17.60;99.90
56771;DHT22;42641;59.794;17.616;2023-06-19T04:13:57;17.70;99.90
56771;DHT22;42641;59.794;17.616;2023-06-19T04:16:24;17.70;99.90
56771;DHT22;42641;59.794;17.616;2023-06-19T04:18:50;17.70;99.90
56771;DHT22;42641;59.794;17.616;2023-06-19T04:21:16;17.70;99.90
56771;DHT22;42641;59.794;17.616;2023-06-19T04:23:43;17.80;99.90
56771;DHT22;42641;59.794;17.616;2023-06-19T04:26:09;17.80;99.90
56771;DHT22;42641;59.794;17.616;2023-06-19T04:28:36;17.80;99.90
56771;DHT22;42641;59.794;17.616;2023-06-19T04:31:02;17.90;99.90
56771;DHT22;42641;59.794;17.616;2023-06-19T04:33:29;18.00;99.90
56771;DHT22;42641;59.794;17.616;2023-06-19T04:35:56;18.10;99.90
56771;DHT22;42641;59.794;17.616;2023-06-19T04:38:22;18.10;99.90
56771;DHT22;42641;59.794;17.616;2023-06-19T04:40:52;18.20;99.90
56771;DHT22;42641;59.794;17.616;2023-06-19T04:43:19;18.20;99.90
56771;DHT22;42641;59.794;17.616;2023-06-19T04:45:45;18.20;99.90
56771;DHT22;42641;59.794;17.616;2023-06-19T04:48:12;18.10;99.90
56771;DHT22;42641;59.794;17.616;2023-06-19T04:50:38;18.10;99.90
56771;DHT22;42641;59.794;17.616;2023-06-19T04:53:05;18.20;99.90
56771;DHT22;42641;59.794;17.616;2023-06-19T04:55:32;18.10;99.90
56771;DHT22;42641;59.794;17.616;2023-06-19T04:57:58;18.10;99.90
56771;DHT22;42641;59.794;17.616;2023-06-19T05:00:25;18.20;99.90
56771;DHT22;42641;59.794;17.616;2023-06-19T05:02:51;18.20;99.90
56771;DHT22;42641;59.794;17.616;2023-06-19T05:05:18;18.20;99.90
56771;DHT22;42641;59.794;17.616;2023-06-19T05:07:44;18.30;99.90
56771;DHT22;42641;59.794;17.616;2023-06-19T05:10:13;18.30;99.90
56771;DHT22;42641;59.794;17.616;2023-06-19T05:12:40;18.40;99.90
56771;DHT22;42641;59.794;17.616;2023-06-19T05:15:07;18.50;99.90
56771;DHT22;42641;59.794;17.616;2023-06-19T05:17:33;18.50;99.90
56771;DHT22;42641;59.794;17.616;2023-06-19T05:20:00;18.50;99.90
56771;DHT22;42641;59.794;17.616;2023-06-19T05:22:27;18.70;99.90
56771;DHT22;42641;59.794;17.616;2023-06-19T05:24:53;18.80;99.90
56771;DHT22;42641;59.794;17.616;2023-06-19T05:27:20;18.80;99.90
56771;DHT22;42641;59.794;17.616;2023-06-19T05:29:46;18.80;99.90
56771;DHT22;42641;59.794;17.616;2023-06-19T05:32:13;18.80;99.90
56771;DHT22;42641;59.794;17.616;2023-06-19T05:34:39;18.80;99.90
56771;DHT22;42641;59.794;17.616;2023-06-19T05:37:05;18.90;99.90
56771;DHT22;42641;59.794;17.616;2023-06-19T05:39:32;19.00;99.90
56771;DHT22;42641;59.794;17.616;2023-06-19T05:41:58;19.00;99.90
56771;DHT22;42641;59.794;17.616;2023-06-19T05:44:25;19.10;99.90
56771;DHT22;42641;59.794;17.616;2023-06-19T05:46:51;19.20;99.90
56771;DHT22;42641;59.794;17.616;2023-06-19T05:49:18;19.20;99.90
56771;DHT22;42641;59.794;17.616;2023-06-19T05:51:44;19.20;99.90
56771;DHT22;42641;59.794;17.616;2023-06-19T05:54:11;19.20;99.90
56771;DHT22;42641;59.794;17.616;2023-06-19T05:56:38;19.20;99.90
56771;DHT22;42641;59.794;17.616;2023-06-19T05:59:04;19.30;99.90
56771;DHT22;42641;59.794;17.616;2023-06-19T06:01:31;19.30;99.90
56771;DHT22;42641;59.794;17.616;2023-06-19T06:03:57;19.30;99.90
56771;DHT22;42641;59.794;17.616;2023-06-19T06:06:23;19.30;99.90
56771;DHT22;42641;59.794;17.616;2023-06-19T06:08:50;19.30;99.90
56771;DHT22;42641;59.794;17.616;2023-06-19T06:11:22;19.30;99.90
56771;DHT22;42641;59.794;17.616;2023-06-19T06:13:48;19.30;99.90
56771;DHT22;42641;59.794;17.616;2023-06-19T06:16:15;19.20;99.90
56771;DHT22;42641;59.794;17.616;2023-06-19T06:18:41;19.20;99.90
56771;DHT22;42641;59.794;17.616;2023-06-19T06:21:08;19.20;99.90
56771;DHT22;42641;59.794;17.616;2023-06-19T06:23:34;19.20;99.90
56771;DHT22;42641;59.794;17.616;2023-06-19T06:26:00;19.20;99.90
56771;DHT22;42641;59.794;17.616;2023-06-19T06:28:28;19.30;99.90
56771;DHT22;42641;59.794;17.616;2023-06-19T06:30:55;19.40;99.90
56771;DHT22;42641;59.794;17.616;2023-06-19T06:33:22;19.50;99.90
56771;DHT22;42641;59.794;17.616;2023-06-19T06:35:48;19.60;99.90
56771;DHT22;42641;59.794;17.616;2023-06-19T06:38:14;19.60;99.90
56771;DHT22;42641;59.794;17.616;2023-06-19T06:40:41;19.60;99.90
56771;DHT22;42641;59.794;17.616;2023-06-19T06:43:09;19.70;99.90
56771;DHT22;42641;59.794;17.616;2023-06-19T06:45:35;19.70;99.90
56771;DHT22;42641;59.794;17.616;2023-06-19T06:48:04;19.70;99.90
56771;DHT22;42641;59.794;17.616;2023-06-19T06:50:33;19.60;99.90
56771;DHT22;42641;59.794;17.616;2023-06-19T06:53:00;19.50;99.90
56771;DHT22;42641;59.794;17.616;2023-06-19T06:55:27;19.60;99.90
56771;DHT22;42641;59.794;17.616;2023-06-19T06:57:53;19.60;99.90
56771;DHT22;42641;59.794;17.616;2023-06-19T07:00:20;19.60;99.90
56771;DHT22;42641;59.794;17.616;2023-06-19T07:02:46;19.70;99.90
56771;DHT22;42641;59.794;17.616;2023-06-19T07:05:14;19.80;99.90
56771;DHT22;42641;59.794;17.616;2023-06-19T07:07:40;19.90;99.90
56771;DHT22;42641;59.794;17.616;2023-06-19T07:10:08;19.90;99.90
56771;DHT22;42641;59.794;17.616;2023-06-19T07:12:48;19.90;99.90
56771;DHT22;42641;59.794;17.616;2023-06-19T07:15:15;20.00;99.90
56771;DHT22;42641;59.794;17.616;2023-06-19T07:17:41;20.00;99.90
56771;DHT22;42641;59.794;17.616;2023-06-19T07:20:08;20.20;99.90
56771;DHT22;42641;59.794;17.616;2023-06-19T07:22:35;20.30;99.90
56771;DHT22;42641;59.794;17.616;2023-06-19T07:25:02;20.50;99.90
56771;DHT22;42641;59.794;17.616;2023-06-19T07:27:30;20.60;99.90
56771;DHT22;42641;59.794;17.616;2023-06-19T07:29:56;20.70;99.90
56771;DHT22;42641;59.794;17.616;2023-06-19T07:32:23;20.90;99.90
56771;DHT22;42641;59.794;17.616;2023-06-19T07:34:49;21.10;99.90
56771;DHT22;42641;59.794;17.616;2023-06-19T07:37:16;21.30;99.90
56771;DHT22;42641;59.794;17.616;2023-06-19T07:39:48;21.40;99.90
56771;DHT22;42641;59.794;17.616;2023-06-19T07:42:14;21.50;99.90
56771;DHT22;42641;59.794;17.616;2023-06-19T07:44:42;21.40;99.90
56771;DHT22;42641;59.794;17.616;2023-06-19T07:47:09;21.30;99.90
56771;DHT22;42641;59.794;17.616;2023-06-19T07:49:36;21.30;99.90
56771;DHT22;42641;59.794;17.616;2023-06-19T07:52:03;21.20;99.90
56771;DHT22;42641;59.794;17.616;2023-06-19T07:54:30;21.30;99.90
56771;DHT22;42641;59.794;17.616;2023-06-19T07:56:56;21.70;99.90
56771;DHT22;42641;59.794;17.616;2023-06-19T07:59:23;22.10;99.90
56771;DHT22;42641;59.794;17.616;2023-06-19T08:01:50;22.30;99.90
56771;DHT22;42641;59.794;17.616;2023-06-19T08:04:16;22.50;99.90
56771;DHT22;42641;59.794;17.616;2023-06-19T08:06:43;22.50;99.90
56771;DHT22;42641;59.794;17.616;2023-06-19T08:09:09;22.50;99.90
56771;DHT22;42641;59.794;17.616;2023-06-19T08:11:36;22.80;99.90
56771;DHT22;42641;59.794;17.616;2023-06-19T08:14:03;23.10;99.90
56771;DHT22;42641;59.794;17.616;2023-06-19T08:16:29;23.30;99.90
56771;DHT22;42641;59.794;17.616;2023-06-19T08:18:56;23.10;99.90
56771;DHT22;42641;59.794;17.616;2023-06-19T08:21:22;22.90;99.90
56771;DHT22;42641;59.794;17.616;2023-06-19T08:23:49;22.90;99.90
56771;DHT22;42641;59.794;17.616;2023-06-19T08:26:15;22.80;99.90
56771;DHT22;42641;59.794;17.616;2023-06-19T08:28:42;22.90;99.90
56771;DHT22;42641;59.794;17.616;2023-06-19T08:31:08;22.80;99.90
56771;DHT22;42641;59.794;17.616;2023-06-19T08:33:35;22.80;99.90
56771;DHT22;42641;59.794;17.616;2023-06-19T08:36:01;22.80;99.90
56771;DHT22;42641;59.794;17.616;2023-06-19T08:38:28;22.90;99.90
56771;DHT22;42641;59.794;17.616;2023-06-19T08:40:54;23.10;99.90
56771;DHT22;42641;59.794;17.616;2023-06-19T08:43:21;23.20;99.90
56771;DHT22;42641;59.794;17.616;2023-06-19T08:46:13;23.30;99.90
56771;DHT22;42641;59.794;17.616;2023-06-19T08:48:40;23.40;99.90
56771;DHT22;42641;59.794;17.616;2023-06-19T08:51:07;23.40;99.90
56771;DHT22;42641;59.794;17.616;2023-06-19T08:53:43;23.40;99.90
56771;DHT22;42641;59.794;17.616;2023-06-19T08:56:09;23.40;99.90
56771;DHT22;42641;59.794;17.616;2023-06-19T08:58:36;23.50;99.90
56771;DHT22;42641;59.794;17.616;2023-06-19T09:01:03;23.80;99.90
56771;DHT22;42641;59.794;17.616;2023-06-19T09:03:29;24.10;99.90
56771;DHT22;42641;59.794;17.616;2023-06-19T09:05:56;24.40;99.90
56771;DHT22;42641;59.794;17.616;2023-06-19T09:08:23;24.70;99.90
56771;DHT22;42641;59.794;17.616;2023-06-19T09:10:57;24.60;99.90
56771;DHT22;42641;59.794;17.616;2023-06-19T09:13:23;24.40;99.90
56771;DHT22;42641;59.794;17.616;2023-06-19T09:16:04;24.40;99.90
56771;DHT22;42641;59.794;17.616;2023-06-19T09:18:42;24.50;99.90
56771;DHT22;42641;59.794;17.616;2023-06-19T09:21:18;24.70;99.90
56771;DHT22;42641;59.794;17.616;2023-06-19T09:23:48;24.90;99.90
56771;DHT22;42641;59.794;17.616;2023-06-19T09:26:19;25.00;99.90
56771;DHT22;42641;59.794;17.616;2023-06-19T09:28:46;24.90;99.90
56771;DHT22;42641;59.794;17.616;2023-06-19T09:31:13;25.10;99.90
56771;DHT22;42641;59.794;17.616;2023-06-19T09:33:40;25.40;99.90
56771;DHT22;42641;59.794;17.616;2023-06-19T09:36:06;25.50;99.90
56771;DHT22;42641;59.794;17.616;2023-06-19T09:38:36;25.30;99.90
56771;DHT22;42641;59.794;17.616;2023-06-19T09:41:10;24.80;99.90
56771;DHT22;42641;59.794;17.616;2023-06-19T09:43:42;24.60;99.90
56771;DHT22;42641;59.794;17.616;2023-06-19T09:46:10;24.50;99.90
56771;DHT22;42641;59.794;17.616;2023-06-19T09:48:43;24.60;99.90
56771;DHT22;42641;59.794;17.616;2023-06-19T09:51:37;24.70;99.90
56771;DHT22;42641;59.794;17.616;2023-06-19T09:54:05;24.50;99.90
56771;DHT22;42641;59.794;17.616;2023-06-19T09:56:33;24.20;99.90
56771;DHT22;42641;59.794;17.616;2023-06-19T09:59:00;24.00;99.90
56771;DHT22;42641;59.794;17.616;2023-06-19T10:01:30;23.90;99.90
56771;DHT22;42641;59.794;17.616;2023-06-19T10:04:06;23.90;99.90
56771;DHT22;42641;59.794;17.616;2023-06-19T10:06:33;24.00;99.90
56771;DHT22;42641;59.794;17.616;2023-06-19T10:09:07;24.00;99.90
56771;DHT22;42641;59.794;17.616;2023-06-19T10:11:47;24.20;99.90
56771;DHT22;42641;59.794;17.616;2023-06-19T10:14:14;24.20;99.90
56771;DHT22;42641;59.794;17.616;2023-06-19T10:16:45;24.20;99.90
56771;DHT22;42641;59.794;17.616;2023-06-19T10:19:16;24.30;99.90
56771;DHT22;42641;59.794;17.616;2023-06-19T10:21:48;24.30;99.90
56771;DHT22;42641;59.794;17.616;2023-06-19T10:24:17;24.40;99.90
56771;DHT22;42641;59.794;17.616;2023-06-19T10:27:05;24.40;99.90
56771;DHT22;42641;59.794;17.616;2023-06-19T10:29:39;24.30;99.90
56771;DHT22;42641;59.794;17.616;2023-06-19T10:32:06;24.40;99.90
56771;DHT22;42641;59.794;17.616;2023-06-19T10:34:36;24.70;99.90
56771;DHT22;42641;59.794;17.616;2023-06-19T10:37:02;25.00;99.90
56771;DHT22;42641;59.794;17.616;2023-06-19T10:39:30;25.50;99.90
56771;DHT22;42641;59.794;17.616;2023-06-19T10:41:56;25.80;99.90
56771;DHT22;42641;59.794;17.616;2023-06-19T10:44:23;26.00;99.90
56771;DHT22;42641;59.794;17.616;2023-06-19T10:46:52;26.20;99.90
56771;DHT22;42641;59.794;17.616;2023-06-19T10:49:19;26.30;99.90
56771;DHT22;42641;59.794;17.616;2023-06-19T10:51:48;26.20;99.90
56771;DHT22;42641;59.794;17.616;2023-06-19T10:54:15;26.30;99.90
56771;DHT22;42641;59.794;17.616;2023-06-19T10:56:41;26.20;99.90
56771;DHT22;42641;59.794;17.616;2023-06-19T10:59:10;26.00;99.90
56771;DHT22;42641;59.794;17.616;2023-06-19T11:01:42;25.80;99.90
56771;DHT22;42641;59.794;17.616;2023-06-19T11:04:10;25.60;99.90
56771;DHT22;42641;59.794;17.616;2023-06-19T11:06:38;25.50;99.90
56771;DHT22;42641;59.794;17.616;2023-06-19T11:09:07;25.30;99.90
56771;DHT22;42641;59.794;17.616;2023-06-19T11:11:38;25.40;99.90
56771;DHT22;42641;59.794;17.616;2023-06-19T11:14:05;25.40;99.90
56771;DHT22;42641;59.794;17.616;2023-06-19T11:16:42;25.10;99.90
56771;DHT22;42641;59.794;17.616;2023-06-19T11:19:13;24.80;99.90
56771;DHT22;42641;59.794;17.616;2023-06-19T11:21:39;24.80;99.90
56771;DHT22;42641;59.794;17.616;2023-06-19T11:24:11;24.60;99.90
56771;DHT22;42641;59.794;17.616;2023-06-19T11:26:42;24.50;99.90
56771;DHT22;42641;59.794;17.616;2023-06-19T11:29:23;24.50;99.90
56771;DHT22;42641;59.794;17.616;2023-06-19T11:31:50;24.60;99.90
56771;DHT22;42641;59.794;17.616;2023-06-19T11:34:17;24.60;99.90
56771;DHT22;42641;59.794;17.616;2023-06-19T11:36:44;24.50;99.90
56771;DHT22;42641;59.794;17.616;2023-06-19T11:39:12;24.30;99.90
56771;DHT22;42641;59.794;17.616;2023-06-19T11:41:45;24.10;99.90
56771;DHT22;42641;59.794;17.616;2023-06-19T11:44:13;23.90;99.90
56771;DHT22;42641;59.794;17.616;2023-06-19T11:46:39;23.80;99.90
56771;DHT22;42641;59.794;17.616;2023-06-19T11:49:13;23.70;99.90
56771;DHT22;42641;59.794;17.616;2023-06-19T11:51:40;23.40;99.90
56771;DHT22;42641;59.794;17.616;2023-06-19T11:54:09;23.20;99.90
56771;DHT22;42641;59.794;17.616;2023-06-19T11:56:36;23.00;99.90
56771;DHT22;42641;59.794;17.616;2023-06-19T11:59:03;22.90;99.90
56771;DHT22;42641;59.794;17.616;2023-06-19T12:01:32;22.70;99.90
56771;DHT22;42641;59.794;17.616;2023-06-19T12:04:00;22.60;99.90
56771;DHT22;42641;59.794;17.616;2023-06-19T12:06:27;22.50;99.90
56771;DHT22;42641;59.794;17.616;2023-06-19T12:08:54;22.50;99.90
56771;DHT22;42641;59.794;17.616;2023-06-19T12:11:20;22.40;99.90
56771;DHT22;42641;59.794;17.616;2023-06-19T12:13:46;22.40;99.90
56771;DHT22;42641;59.794;17.616;2023-06-19T12:16:13;22.40;99.90
56771;DHT22;42641;59.794;17.616;2023-06-19T12:18:40;22.40;99.90
56771;DHT22;42641;59.794;17.616;2023-06-19T12:21:07;22.40;99.90
56771;DHT22;42641;59.794;17.616;2023-06-19T12:23:33;22.60;99.90
56771;DHT22;42641;59.794;17.616;2023-06-19T12:26:00;22.70;99.90
56771;DHT22;42641;59.794;17.616;2023-06-19T12:28:26;22.80;99.90
56771;DHT22;42641;59.794;17.616;2023-06-19T12:30:53;22.90;99.90
56771;DHT22;42641;59.794;17.616;2023-06-19T12:33:20;22.90;99.90
56771;DHT22;42641;59.794;17.616;2023-06-19T12:35:47;22.80;99.90
56771;DHT22;42641;59.794;17.616;2023-06-19T12:38:13;22.90;99.90
56771;DHT22;42641;59.794;17.616;2023-06-19T12:40:40;22.80;99.90
56771;DHT22;42641;59.794;17.616;2023-06-19T12:43:07;22.80;99.90
56771;DHT22;42641;59.794;17.616;2023-06-19T12:45:33;22.80;99.90
56771;DHT22;42641;59.794;17.616;2023-06-19T12:48:00;22.90;99.90
56771;DHT22;42641;59.794;17.616;2023-06-19T12:50:26;22.80;99.90
56771;DHT22;42641;59.794;17.616;2023-06-19T12:52:53;22.80;99.90
56771;DHT22;42641;59.794;17.616;2023-06-19T12:55:19;22.70;99.90
56771;DHT22;42641;59.794;17.616;2023-06-19T12:57:46;22.80;99.90
56771;DHT22;42641;59.794;17.616;2023-06-19T13:00:13;23.00;99.90
56771;DHT22;42641;59.794;17.616;2023-06-19T13:02:40;23.10;99.90
56771;DHT22;42641;59.794;17.616;2023-06-19T13:05:07;23.20;99.90
56771;DHT22;42641;59.794;17.616;2023-06-19T13:07:33;23.50;99.90
56771;DHT22;42641;59.794;17.616;2023-06-19T13:09:59;23.90;99.90
56771;DHT22;42641;59.794;17.616;2023-06-19T13:12:26;24.60;99.90
56771;DHT22;42641;59.794;17.616;2023-06-19T13:14:52;25.50;99.90
56771;DHT22;42641;59.794;17.616;2023-06-19T13:17:19;26.60;99.90
56771;DHT22;42641;59.794;17.616;2023-06-19T13:19:45;27.40;99.90
56771;DHT22;42641;59.794;17.616;2023-06-19T13:22:12;27.90;99.90
56771;DHT22;42641;59.794;17.616;2023-06-19T13:24:38;28.40;99.90
56771;DHT22;42641;59.794;17.616;2023-06-19T13:27:05;29.00;99.90
56771;DHT22;42641;59.794;17.616;2023-06-19T13:29:31;29.50;99.90
56771;DHT22;42641;59.794;17.616;2023-06-19T13:31:57;30.10;99.90
56771;DHT22;42641;59.794;17.616;2023-06-19T13:34:24;30.50;99.90
56771;DHT22;42641;59.794;17.616;2023-06-19T13:36:50;30.80;99.90
56771;DHT22;42641;59.794;17.616;2023-06-19T13:39:17;30.30;99.90
56771;DHT22;42641;59.794;17.616;2023-06-19T13:41:47;30.10;99.90
56771;DHT22;42641;59.794;17.616;2023-06-19T13:44:14;29.70;99.90
56771;DHT22;42641;59.794;17.616;2023-06-19T13:46:40;29.40;99.90
56771;DHT22;42641;59.794;17.616;2023-06-19T13:49:06;28.90;99.90
56771;DHT22;42641;59.794;17.616;2023-06-19T13:51:33;28.40;99.90
56771;DHT22;42641;59.794;17.616;2023-06-19T13:53:59;28.30;99.90
56771;DHT22;42641;59.794;17.616;2023-06-19T13:56:26;28.30;99.90
56771;DHT22;42641;59.794;17.616;2023-06-19T13:58:52;28.90;99.90
56771;DHT22;42641;59.794;17.616;2023-06-19T14:01:18;29.50;99.90
56771;DHT22;42641;59.794;17.616;2023-06-19T14:03:45;29.90;99.90
56771;DHT22;42641;59.794;17.616;2023-06-19T14:06:11;30.10;99.90
56771;DHT22;42641;59.794;17.616;2023-06-19T14:08:38;30.10;99.70
56771;DHT22;42641;59.794;17.616;2023-06-19T14:11:05;30.40;99.60
56771;DHT22;42641;59.794;17.616;2023-06-19T14:13:32;30.50;99.70
56771;DHT22;42641;59.794;17.616;2023-06-19T14:15:59;30.00;99.50
56771;DHT22;42641;59.794;17.616;2023-06-19T14:18:25;29.70;99.90
56771;DHT22;42641;59.794;17.616;2023-06-19T14:20:52;29.20;99.90
56771;DHT22;42641;59.794;17.616;2023-06-19T14:23:18;29.40;99.90
56771;DHT22;42641;59.794;17.616;2023-06-19T14:25:45;29.60;99.50
56771;DHT22;42641;59.794;17.616;2023-06-19T14:28:11;29.80;99.20
56771;DHT22;42641;59.794;17.616;2023-06-19T14:30:40;30.40;99.30
56771;DHT22;42641;59.794;17.616;2023-06-19T14:33:06;30.30;99.00
56771;DHT22;42641;59.794;17.616;2023-06-19T14:35:36;30.00;99.30
56771;DHT22;42641;59.794;17.616;2023-06-19T14:38:02;29.80;99.30
56771;DHT22;42641;59.794;17.616;2023-06-19T14:40:29;30.00;99.50
56771;DHT22;42641;59.794;17.616;2023-06-19T14:42:55;30.20;98.80
56771;DHT22;42641;59.794;17.616;2023-06-19T14:45:22;30.40;97.90
56771;DHT22;42641;59.794;17.616;2023-06-19T14:47:48;30.00;98.30
56771;DHT22;42641;59.794;17.616;2023-06-19T14:50:15;29.30;99.20
56771;DHT22;42641;59.794;17.616;2023-06-19T14:52:41;28.60;99.80
56771;DHT22;42641;59.794;17.616;2023-06-19T14:55:08;27.80;99.90
56771;DHT22;42641;59.794;17.616;2023-06-19T14:57:35;27.30;99.90
56771;DHT22;42641;59.794;17.616;2023-06-19T15:00:02;27.10;99.90
56771;DHT22;42641;59.794;17.616;2023-06-19T15:02:31;27.10;99.90
56771;DHT22;42641;59.794;17.616;2023-06-19T15:04:58;27.20;99.90
56771;DHT22;42641;59.794;17.616;2023-06-19T15:07:24;27.40;99.90
56771;DHT22;42641;59.794;17.616;2023-06-19T15:09:50;27.50;99.90
56771;DHT22;42641;59.794;17.616;2023-06-19T15:12:17;27.70;99.90
56771;DHT22;42641;59.794;17.616;2023-06-19T15:14:44;27.90;99.90
56771;DHT22;42641;59.794;17.616;2023-06-19T15:17:10;27.80;99.90